Time;durP1;ratioP1;P1;durP2;ratioP2;P2;SDS_P1;SDS_P2;PMS_P1;PMS_P2;Temp;Humidity;BMP_temperature;BMP_pressure;BME280_temperature;BME280_humidity;BME280_pressure;Samples;Min_cycle;Max_cycle;Signal;HPM_P1;HPM_P2
2023/05/04 00:00:31;;;;;;;26.13;13.57;;;;;;;-141.97;90.30;47669.00;5053147;28;20162;-80
2023/05/04 00:02:56;;;;;;;27.13;13.63;;;;;;;-141.97;90.27;47670.91;5053260;28;20192;-78
2023/05/04 00:05:22;;;;;;;30.30;14.30;;;;;;;-141.97;89.83;47644.00;5054163;28;20168;-79
2023/05/04 00:07:47;;;;;;;29.37;14.63;;;;;;;-141.97;90.02;47619.03;5052522;28;20203;-79
2023/05/04 00:10:13;;;;;;;26.43;13.90;;;;;;;-141.97;89.90;47609.41;5052835;28;20242;-80
2023/05/04 00:12:38;;;;;;;29.03;13.90;;;;;;;-141.97;89.61;47649.78;5052823;28;20252;-79
2023/05/04 00:15:04;;;;;;;26.80;14.60;;;;;;;-141.97;89.98;47630.56;5053957;28;20165;-79
2023/05/04 00:17:30;;;;;;;26.93;14.43;;;;;;;-141.97;90.51;47661.31;5051885;28;20188;-79
2023/05/04 00:19:56;;;;;;;29.80;15.50;;;;;;;-141.97;90.39;47661.31;5033317;28;20161;-79
2023/05/04 00:22:21;;;;;;;27.33;15.37;;;;;;;-141.97;90.62;47622.88;5051733;28;20166;-79
2023/05/04 00:24:47;;;;;;;30.93;16.20;;;;;;;-141.97;90.45;47678.63;5051345;28;20228;-79
2023/05/04 00:27:13;;;;;;;31.20;16.10;;;;;;;-141.97;90.69;47657.47;5051373;28;20158;-79
2023/05/04 00:29:38;;;;;;;29.10;15.00;;;;;;;-141.97;90.62;47695.91;5051605;28;20200;-78
2023/05/04 00:32:04;;;;;;;31.47;15.20;;;;;;;-141.97;91.48;47665.16;5051439;28;20165;-78
2023/05/04 00:34:30;;;;;;;29.03;15.67;;;;;;;-141.97;90.74;47640.16;5051143;28;20212;-78
2023/05/04 00:36:56;;;;;;;27.90;16.03;;;;;;;-141.97;91.73;47669.00;5050699;28;20501;-80
2023/05/04 00:39:21;;;;;;;30.00;15.83;;;;;;;-141.97;91.40;47647.84;5051033;28;20216;-80
2023/05/04 00:41:47;;;;;;;29.87;15.57;;;;;;;-141.97;91.21;47672.84;5051774;28;20185;-79
2023/05/04 00:44:13;;;;;;;31.10;15.23;;;;;;;-141.97;91.23;47622.88;5051011;28;20929;-79
2023/05/04 00:46:38;;;;;;;27.63;14.77;;;;;;;-141.97;90.97;47653.63;5051242;28;20228;-79
2023/05/04 00:49:05;;;;;;;29.00;15.30;;;;;;;-141.97;90.20;47680.53;5052439;28;20161;-79
2023/05/04 00:51:31;;;;;;;29.90;13.93;;;;;;;-141.97;89.40;47634.41;5055071;28;20196;-80
2023/05/04 00:53:57;;;;;;;23.40;12.87;;;;;;;-141.97;89.19;47680.53;5055509;28;20537;-78
2023/05/04 00:56:23;;;;;;;27.73;13.20;;;;;;;-141.97;89.43;47670.91;5054314;28;20653;-78
2023/05/04 00:58:53;;;;;;;24.73;13.70;;;;;;;-141.97;90.19;47638.25;5054827;28;20166;-77
2023/05/04 01:01:21;;;;;;;27.13;14.47;;;;;;;-141.97;90.36;47692.06;5054768;28;20248;-79
2023/05/04 01:03:48;;;;;;;31.43;15.60;;;;;;;-141.97;90.59;47665.16;5054561;28;20597;-77
2023/05/04 01:06:16;;;;;;;28.33;15.07;;;;;;;-141.97;90.68;47694.00;5054111;28;20304;-79
2023/05/04 01:08:49;;;;;;;30.03;15.20;;;;;;;-141.97;90.57;47661.31;5053947;28;20215;-79
2023/05/04 01:11:30;;;;;;;32.70;16.17;;;;;;;-141.97;90.46;47653.63;5056222;28;20565;-79
2023/05/04 01:13:55;;;;;;;30.57;16.20;;;;;;;-141.97;90.02;47670.91;5056881;28;20172;-76
2023/05/04 01:16:21;;;;;;;33.90;16.17;;;;;;;-141.97;90.14;47678.63;5054798;28;20173;-79
2023/05/04 01:18:46;;;;;;;31.27;16.27;;;;;;;-141.97;89.44;47651.69;5055042;28;20173;-79
2023/05/04 01:21:11;;;;;;;31.67;16.07;;;;;;;-141.97;89.39;47653.63;5055205;28;20157;-79
2023/05/04 01:23:37;;;;;;;33.30;16.17;;;;;;;-141.97;89.84;47628.63;5054229;28;20184;-79
2023/05/04 01:26:28;;;;;;;29.93;16.13;;;;;;;-141.97;89.90;47692.06;5054422;28;20161;-78
2023/05/04 01:29:12;;;;;;;31.80;16.37;;;;;;;-141.97;90.09;47663.22;5036732;28;20645;-79
2023/05/04 01:31:38;;;;;;;34.10;15.83;;;;;;;-141.97;90.80;47655.53;5053963;28;20200;-79
2023/05/04 01:34:06;;;;;;;29.43;15.53;;;;;;;-141.97;90.28;47657.47;5036592;28;20558;-79
2023/05/04 01:36:32;;;;;;;32.87;16.43;;;;;;;-141.97;91.03;47661.31;5055483;28;20173;-79
2023/05/04 01:38:58;;;;;;;31.03;15.20;;;;;;;-141.97;90.78;47649.78;5076198;28;20221;-78
2023/05/04 01:41:24;;;;;;;29.93;15.57;;;;;;;-141.97;90.36;47661.31;5058627;28;20207;-80
2023/05/04 01:43:49;;;;;;;29.63;15.47;;;;;;;-141.97;90.57;47761.25;5054071;28;20165;-80
2023/05/04 01:46:15;;;;;;;29.43;16.40;;;;;;;-141.97;91.12;47780.47;5054017;28;20626;-79
2023/05/04 01:48:40;;;;;;;28.33;15.53;;;;;;;-141.97;90.82;47638.25;5054002;28;20162;-79
2023/05/04 01:51:06;;;;;;;28.37;14.70;;;;;;;-141.97;90.55;47680.53;5053922;28;20192;-79
2023/05/04 01:53:31;;;;;;;28.53;14.93;;;;;;;-141.97;90.85;47659.38;5053656;28;20256;-78
2023/05/04 01:55:56;;;;;;;32.03;14.47;;;;;;;-141.97;90.39;47615.19;5053649;28;20202;-80
2023/05/04 01:58:22;;;;;;;26.53;14.83;;;;;;;-141.97;90.49;47644.00;5053454;28;20611;-77
2023/05/04 02:00:47;;;;;;;28.63;14.33;;;;;;;-141.97;90.63;47672.84;5052445;28;20174;-79
2023/05/04 02:03:12;;;;;;;28.60;14.53;;;;;;;-141.97;90.45;47676.69;5053992;28;20588;-79
2023/05/04 02:05:38;;;;;;;26.20;14.90;;;;;;;-141.97;90.62;47678.63;5053381;28;20235;-80
2023/05/04 02:08:03;;;;;;;25.07;13.70;;;;;;;-141.97;90.32;47692.06;5053642;28;20185;-79
2023/05/04 02:10:29;;;;;;;29.70;14.27;;;;;;;-141.97;89.78;47624.78;5053677;28;20587;-79
2023/05/04 02:12:55;;;;;;;30.07;15.07;;;;;;;-141.97;90.18;47653.63;5035661;28;20576;-79
2023/05/04 02:15:21;;;;;;;30.40;14.50;;;;;;;-141.97;90.54;47661.31;5054084;28;20166;-78
2023/05/04 02:17:46;;;;;;;29.40;14.53;;;;;;;-141.97;90.90;47619.03;5053112;28;20200;-78
2023/05/04 02:20:12;;;;;;;24.93;14.30;;;;;;;-141.97;90.73;47665.16;5052976;28;20638;-80
2023/05/04 02:22:37;;;;;;;26.43;13.87;;;;;;;-141.97;90.97;47667.06;5052978;28;20170;-78
2023/05/04 02:25:03;;;;;;;28.10;14.30;;;;;;;-141.97;90.56;47672.84;5034432;28;20584;-80
2023/05/04 02:27:29;;;;;;;28.53;14.17;;;;;;;-141.97;91.01;47670.91;5053622;28;20173;-77
2023/05/04 02:29:57;;;;;;;25.80;14.40;;;;;;;-141.97;91.38;47661.31;5052891;28;20249;-78
2023/05/04 02:32:23;;;;;;;25.47;13.90;;;;;;;-141.97;91.58;47657.47;5052603;28;20249;-79
2023/05/04 02:34:48;;;;;;;27.23;13.83;;;;;;;-141.97;91.04;47661.31;5052926;28;20661;-79
2023/05/04 02:37:15;;;;;;;24.60;13.10;;;;;;;-141.97;91.19;47670.91;5035054;28;20216;-79
2023/05/04 02:39:40;;;;;;;24.30;12.40;;;;;;;-141.97;91.12;47767.03;5052877;28;20224;-78
2023/05/04 02:42:06;;;;;;;26.27;12.90;;;;;;;-141.97;91.21;47607.50;5052691;28;20165;-79
2023/05/04 02:44:31;;;;;;;22.80;12.47;;;;;;;-141.97;91.64;47670.91;5052608;28;20268;-79
2023/05/04 02:46:57;;;;;;;28.10;12.50;;;;;;;-141.97;91.75;47669.00;5052668;28;20192;-79
2023/05/04 02:49:22;;;;;;;24.30;12.83;;;;;;;-141.97;91.26;47730.50;5052724;28;20170;-79
2023/05/04 02:51:48;;;;;;;20.67;12.43;;;;;;;-141.97;90.97;47657.47;5034870;28;20201;-77
2023/05/04 02:54:13;;;;;;;26.87;12.37;;;;;;;-141.97;91.31;47665.16;5034227;28;20515;-78
2023/05/04 02:56:38;;;;;;;21.40;12.90;;;;;;;-141.97;91.11;47726.66;5051392;28;20239;-78
2023/05/04 02:59:04;;;;;;;26.63;13.33;;;;;;;-141.97;90.45;47684.38;5052957;28;20174;-79
2023/05/04 03:01:29;;;;;;;25.77;12.90;;;;;;;-141.97;91.06;47653.63;5052572;28;20160;-82
2023/05/04 03:03:55;;;;;;;24.30;13.20;;;;;;;-141.97;91.45;47676.69;5052522;28;20161;-78
2023/05/04 03:06:20;;;;;;;27.47;13.57;;;;;;;-141.97;92.31;47661.31;5052235;28;20173;-78
2023/05/04 03:08:45;;;;;;;23.10;12.07;;;;;;;-141.97;92.54;47678.63;5051917;28;20626;-79
2023/05/04 03:11:11;;;;;;;25.90;12.90;;;;;;;-141.97;93.05;47684.38;5051588;28;20266;-78
2023/05/04 03:13:36;;;;;;;26.07;13.67;;;;;;;-141.97;94.32;47645.94;5051064;28;20626;-80
2023/05/04 03:16:03;;;;;;;26.07;14.03;;;;;;;-141.97;94.85;47684.38;5034843;28;20175;-76
2023/05/04 03:18:28;;;;;;;26.27;13.50;;;;;;;-141.97;95.25;47680.53;5051394;28;20507;-77
2023/05/04 03:20:53;;;;;;;24.80;13.37;;;;;;;-141.97;96.01;47657.47;5034446;28;20162;-79
2023/05/04 03:23:19;;;;;;;25.97;13.93;;;;;;;-141.97;96.81;47688.22;5051537;28;20169;-79
2023/05/04 03:25:44;;;;;;;27.37;13.13;;;;;;;-141.97;96.89;47680.53;5033802;28;20191;-79
2023/05/04 03:28:10;;;;;;;28.27;13.87;;;;;;;-141.97;96.43;47680.53;5052462;28;20173;-78
2023/05/04 03:30:35;;;;;;;26.07;14.10;;;;;;;-141.97;96.63;47655.53;5034082;28;20193;-79
2023/05/04 03:33:01;;;;;;;26.93;14.37;;;;;;;-141.97;96.20;47661.31;5056727;28;20508;-80
2023/05/04 03:35:26;;;;;;;27.00;13.93;;;;;;;-141.97;96.09;47682.47;5055754;28;20679;-79
2023/05/04 03:37:51;;;;;;;29.17;14.90;;;;;;;-141.97;95.79;47678.63;5052238;28;20165;-79
2023/05/04 03:40:21;;;;;;;28.63;14.73;;;;;;;-141.97;95.76;47709.38;5034349;28;20208;-79
2023/05/04 03:42:47;;;;;;;28.67;14.40;;;;;;;-141.97;95.90;47638.25;5034171;28;20169;-78
2023/05/04 03:45:13;;;;;;;29.00;15.53;;;;;;;-141.97;95.40;47686.31;5051546;28;20221;-76
2023/05/04 03:47:39;;;;;;;29.03;15.37;;;;;;;-141.97;95.36;47661.31;5051740;28;20165;-79
2023/05/04 03:50:05;;;;;;;33.13;16.13;;;;;;;-141.97;95.27;47676.69;5051781;28;20192;-79
2023/05/04 03:52:30;;;;;;;30.90;16.37;;;;;;;-141.97;95.39;47726.66;5052101;28;20228;-79
2023/05/04 03:54:55;;;;;;;32.77;15.70;;;;;;;-141.97;96.23;47692.06;5033627;28;20633;-78
2023/05/04 03:57:23;;;;;;;31.63;15.70;;;;;;;-141.97;95.71;47657.47;5051813;28;20161;-79
2023/05/04 03:59:48;;;;;;;34.50;16.70;;;;;;;-141.97;95.96;47690.16;5051792;28;20161;-78
2023/05/04 04:02:15;;;;;;;30.83;16.10;;;;;;;-141.97;95.91;47661.31;5034015;28;20176;-79
2023/05/04 04:04:40;;;;;;;32.70;15.97;;;;;;;-141.97;96.15;47688.22;5034348;28;20168;-79
2023/05/04 04:07:06;;;;;;;31.87;16.07;;;;;;;-141.97;96.30;47649.78;5051956;28;20154;-78
2023/05/04 04:09:31;;;;;;;30.93;15.60;;;;;;;-141.97;95.85;47659.38;5033490;28;20174;-79
2023/05/04 04:11:56;;;;;;;30.07;15.63;;;;;;;-141.97;95.49;47655.53;5033569;28;20208;-78
2023/05/04 04:14:22;;;;;;;30.37;16.37;;;;;;;-141.97;94.79;47699.75;5051154;28;20246;-78
2023/05/04 04:16:47;;;;;;;29.40;14.90;;;;;;;-141.97;94.74;47680.53;5052197;28;20161;-79
2023/05/04 04:19:13;;;;;;;28.13;15.17;;;;;;;-141.97;94.32;47630.56;5051423;28;20345;-79
2023/05/04 04:21:38;;;;;;;27.13;14.50;;;;;;;-141.97;94.11;47665.16;5051346;28;20177;-79
2023/05/04 04:24:04;;;;;;;25.83;14.07;;;;;;;-141.97;94.25;47659.38;5053228;28;20166;-78
2023/05/04 04:26:29;;;;;;;26.23;14.03;;;;;;;-141.97;94.22;47761.25;5055574;28;20173;-79
2023/05/04 04:28:55;;;;;;;25.23;13.40;;;;;;;-141.97;93.99;47684.38;5055560;28;20162;-79
2023/05/04 04:31:21;;;;;;;26.50;14.70;;;;;;;-141.97;94.26;47669.00;5054982;28;20544;-78
2023/05/04 04:33:48;;;;;;;27.63;15.53;;;;;;;-141.97;94.17;47690.16;5055703;28;20169;-80
2023/05/04 04:36:15;;;;;;;24.83;14.43;;;;;;;-141.97;93.62;47682.47;5058305;28;20166;-77
2023/05/04 04:38:41;;;;;;;29.73;15.00;;;;;;;-141.97;93.81;47653.63;5059970;28;20217;-79
2023/05/04 04:41:07;;;;;;;26.00;15.20;;;;;;;-141.97;93.62;47663.22;5071650;28;20199;-80
2023/05/04 04:43:32;;;;;;;28.13;14.37;;;;;;;-141.97;93.37;47684.38;5049856;28;20575;-78
2023/05/04 04:45:58;;;;;;;29.43;15.70;;;;;;;-141.97;93.24;47680.53;5043543;28;20269;-77
2023/05/04 04:48:24;;;;;;;27.03;15.53;;;;;;;-141.97;93.14;47717.06;5043521;28;20603;-79
2023/05/04 04:50:50;;;;;;;26.63;15.23;;;;;;;-141.97;92.92;47659.38;5041018;28;20196;-79
2023/05/04 04:53:16;;;;;;;28.53;14.93;;;;;;;-141.97;92.34;47715.13;5024172;28;20272;-79
2023/05/04 04:55:41;;;;;;;29.53;15.33;;;;;;;-141.97;92.23;47661.31;5043950;28;20178;-79
2023/05/04 04:58:08;;;;;;;29.33;15.97;;;;;;;-141.97;91.99;47682.47;5028060;28;20643;-79
2023/05/04 05:00:34;;;;;;;26.60;15.17;;;;;;;-141.97;91.68;47768.94;5044619;28;20484;-78
2023/05/04 05:03:00;;;;;;;26.53;15.47;;;;;;;-141.97;90.83;47674.78;5041936;28;20180;-79
2023/05/04 05:05:26;;;;;;;28.23;15.33;;;;;;;-141.97;90.59;47607.50;5042984;28;20314;-79
2023/05/04 05:07:51;;;;;;;26.13;16.03;;;;;;;-141.97;89.51;47684.38;5023705;28;20166;-78
2023/05/04 05:10:17;;;;;;;28.67;15.53;;;;;;;-141.97;89.31;47676.69;5043496;28;20262;-79
2023/05/04 05:12:43;;;;;;;27.30;14.27;;;;;;;-141.97;88.89;47653.63;5035191;28;20182;-79
2023/05/04 05:15:09;;;;;;;24.63;13.87;;;;;;;-141.97;88.86;47709.38;5033018;28;20177;-80
2023/05/04 05:17:36;;;;;;;22.03;13.33;;;;;;;-141.97;88.84;47672.84;5033776;28;20162;-79
2023/05/04 05:20:04;;;;;;;24.37;13.07;;;;;;;-141.97;88.60;47670.91;5033944;28;20687;-79
2023/05/04 05:22:30;;;;;;;24.10;13.63;;;;;;;-141.97;88.49;47680.53;5033627;28;20169;-79
2023/05/04 05:24:55;;;;;;;21.63;12.83;;;;;;;-141.97;88.02;47676.69;5031946;28;20181;-80
2023/05/04 05:27:21;;;;;;;26.00;12.97;;;;;;;-141.97;87.94;47661.31;5034114;28;20166;-79
2023/05/04 05:29:46;;;;;;;20.13;12.67;;;;;;;-141.97;87.64;47684.38;5045253;28;20174;-79
2023/05/04 05:32:12;;;;;;;21.30;12.53;;;;;;;-141.97;87.88;47672.84;5053488;28;20165;-79
2023/05/04 05:34:37;;;;;;;26.07;13.23;;;;;;;-141.97;87.83;47695.91;5049322;28;20167;-78
2023/05/04 05:37:04;;;;;;;21.40;12.90;;;;;;;-141.97;87.02;47676.69;5032489;28;20569;-77
2023/05/04 05:39:29;;;;;;;20.97;12.00;;;;;;;-141.97;86.49;47699.75;5033112;28;20236;-79
2023/05/04 05:41:57;;;;;;;19.33;11.30;;;;;;;-141.97;85.40;47617.09;5033055;28;20624;-78
2023/05/04 05:44:22;;;;;;;19.27;10.60;;;;;;;-141.97;85.30;47715.13;5032759;28;20198;-79
2023/05/04 05:46:48;;;;;;;17.13;10.50;;;;;;;-141.97;84.64;47655.53;5015166;28;20216;-79
2023/05/04 05:49:13;;;;;;;18.57;10.20;;;;;;;-141.97;84.69;47669.00;5033217;28;20514;-80
2023/05/04 05:51:38;;;;;;;15.50;10.27;;;;;;;-141.97;84.58;47672.84;5023378;28;20300;-79
2023/05/04 05:54:04;;;;;;;18.13;9.23;;;;;;;-141.97;84.35;47670.91;5032756;28;20174;-78
2023/05/04 05:56:29;;;;;;;16.40;10.10;;;;;;;-141.97;84.46;47699.75;5032447;28;20209;-80
2023/05/04 05:58:55;;;;;;;20.80;11.20;;;;;;;-141.97;83.78;47690.16;5033199;28;20166;-78
2023/05/04 06:01:20;;;;;;;20.27;10.80;;;;;;;-141.97;83.94;47670.91;5032946;28;20184;-78
2023/05/04 06:03:46;;;;;;;19.83;11.30;;;;;;;-141.97;83.65;47669.00;5032934;28;20158;-78
2023/05/04 06:06:11;;;;;;;21.40;11.77;;;;;;;-141.97;83.28;47665.16;5031249;28;20178;-78
2023/05/04 06:08:37;;;;;;;19.53;10.70;;;;;;;-141.97;82.51;47676.69;5032584;28;20285;-78
2023/05/04 06:11:02;;;;;;;19.97;10.67;;;;;;;-141.97;81.89;47665.16;5015474;28;20205;-79
2023/05/04 06:13:28;;;;;;;23.30;11.73;;;;;;;-141.97;82.80;47649.78;5033627;28;20228;-79
2023/05/04 06:15:53;;;;;;;21.87;10.80;;;;;;;-141.97;83.74;47609.41;5023866;28;20564;-79
2023/05/04 06:18:19;;;;;;;20.83;12.07;;;;;;;-141.97;83.47;47799.72;5032857;28;20174;-78
2023/05/04 06:20:45;;;;;;;21.93;12.13;;;;;;;-141.97;83.51;47642.09;5034338;28;20165;-79
2023/05/04 06:23:13;;;;;;;23.90;11.90;;;;;;;-141.97;84.15;47669.00;5034402;28;20219;-79
2023/05/04 06:25:38;;;;;;;26.40;13.60;;;;;;;-141.97;84.64;47670.91;5035059;28;20181;-78
2023/05/04 06:28:04;;;;;;;24.43;13.43;;;;;;;-141.97;84.64;47678.63;5052384;28;20642;-78
2023/05/04 06:30:29;;;;;;;22.00;13.23;;;;;;;-141.97;85.48;47699.75;5052133;28;20200;-79
2023/05/04 06:32:55;;;;;;;22.57;12.83;;;;;;;-141.97;85.08;47803.56;5051779;28;20502;-80
2023/05/04 06:35:20;;;;;;;27.17;13.43;;;;;;;-141.97;85.62;47717.06;5052106;28;20272;-78
2023/05/04 06:37:45;;;;;;;28.80;14.53;;;;;;;-141.97;85.36;47695.91;5051870;28;20298;-79
2023/05/04 06:40:15;;;;;;;30.00;15.07;;;;;;;-141.97;84.52;47680.53;5064145;28;20181;-77
2023/05/04 06:42:40;;;;;;;30.90;16.40;;;;;;;-141.97;83.73;47572.91;5056296;28;20189;-78
2023/05/04 06:45:06;;;;;;;28.63;16.20;;;;;;;-141.97;83.08;47672.84;5051782;28;20343;-78
2023/05/04 06:47:35;;;;;;;30.53;16.07;;;;;;;-141.97;81.82;47684.38;5046395;28;20177;-81
2023/05/04 06:50:01;;;;;;;29.40;16.03;;;;;;;-141.97;81.28;47722.81;5051665;28;20646;-79
2023/05/04 06:52:28;;;;;;;29.00;16.50;;;;;;;-141.97;81.43;47665.16;5043111;28;20240;-79
2023/05/04 06:54:54;;;;;;;24.47;15.27;;;;;;;-141.97;81.28;47578.66;5052181;28;20628;-79
2023/05/04 06:57:19;;;;;;;28.90;14.97;;;;;;;-141.97;80.64;47642.09;5033877;28;20177;-80
2023/05/04 06:59:45;;;;;;;27.03;15.00;;;;;;;-141.97;80.65;47669.00;5038396;28;20677;-79
2023/05/04 07:02:10;;;;;;;32.00;15.97;;;;;;;-141.97;81.09;47647.84;5032231;28;20174;-80
2023/05/04 07:04:36;;;;;;;26.70;15.00;;;;;;;-141.97;81.51;47661.31;5031594;28;20166;-79
2023/05/04 07:07:02;;;;;;;32.73;17.93;;;;;;;-141.97;80.62;47642.09;5032107;28;20158;-80
2023/05/04 07:09:27;;;;;;;31.40;18.27;;;;;;;-141.97;78.56;47665.16;5031696;28;20198;-78
2023/05/04 07:11:53;;;;;;;36.83;18.97;;;;;;;-141.97;79.98;47674.78;5031586;28;20643;-80
2023/05/04 07:14:18;;;;;;;36.23;20.57;;;;;;;-141.97;79.31;47684.38;5031597;28;20162;-78
2023/05/04 07:16:43;;;;;;;40.03;20.03;;;;;;;-141.97;78.58;47690.16;5031586;28;20257;-79
2023/05/04 07:19:09;;;;;;;38.17;20.50;;;;;;;-141.97;78.80;47792.03;5031857;28;20189;-77
2023/05/04 07:21:35;;;;;;;36.50;20.30;;;;;;;-141.97;79.06;47665.16;5031442;28;20227;-80
2023/05/04 07:24:00;;;;;;;42.10;23.53;;;;;;;-141.97;79.04;47807.41;5021377;28;20181;-78
2023/05/04 07:26:25;;;;;;;40.03;21.73;;;;;;;-141.97;79.06;47667.06;5051202;28;20172;-78
2023/05/04 07:28:51;;;;;;;35.80;21.20;;;;;;;-141.97;78.30;47674.78;5050455;28;20172;-76
2023/05/04 07:31:16;;;;;;;40.80;21.50;;;;;;;-141.97;77.99;47795.88;5050857;28;20616;-78
2023/05/04 07:33:48;;;;;;;39.03;21.37;;;;;;;-141.97;77.62;47711.28;5036744;28;20618;-80
2023/05/04 07:36:14;;;;;;;40.17;21.43;;;;;;;-141.97;77.35;47661.31;5040264;28;20169;-78
2023/05/04 07:38:40;;;;;;;37.93;21.53;;;;;;;-141.97;77.31;47609.41;5039831;28;20240;-81
2023/05/04 07:41:06;;;;;;;38.23;21.13;;;;;;;-141.97;77.14;47672.84;5061165;28;20229;-80
2023/05/04 07:43:31;;;;;;;38.10;20.40;;;;;;;-141.97;75.77;47640.16;5065603;28;20200;-80
2023/05/04 07:45:57;;;;;;;38.70;21.27;;;;;;;-141.97;74.20;47663.22;5054062;28;20491;-80
2023/05/04 07:48:22;;;;;;;38.03;20.73;;;;;;;-141.97;74.66;47663.22;5032428;28;20170;-80
2023/05/04 07:50:49;;;;;;;37.57;20.50;;;;;;;-141.97;74.56;47686.31;5031727;28;20185;-80
2023/05/04 07:53:14;;;;;;;35.43;20.67;;;;;;;-141.97;74.08;47584.44;5003253;28;20713;-81
2023/05/04 07:55:39;;;;;;;37.20;21.70;;;;;;;-141.97;74.28;47682.47;5030895;28;20158;-80
2023/05/04 07:58:05;;;;;;;35.00;20.37;;;;;;;-141.97;73.92;47661.31;5032179;28;20181;-77
2023/05/04 08:00:31;;;;;;;38.33;20.97;;;;;;;-141.97;73.64;47638.25;5037358;28;20574;-80
2023/05/04 08:02:57;;;;;;;29.13;18.67;;;;;;;-141.97;73.03;47620.94;5037520;28;20165;-81
2023/05/04 08:05:22;;;;;;;30.70;18.27;;;;;;;-141.97;75.51;47642.09;5037391;28;20519;-80
2023/05/04 08:07:48;;;;;;;34.57;18.77;;;;;;;-141.97;76.46;47615.19;5037548;28;20170;-81
2023/05/04 08:10:13;;;;;;;32.20;19.13;;;;;;;-141.97;76.64;47661.31;5037370;28;20279;-81
2023/05/04 08:12:39;;;;;;;36.23;19.90;;;;;;;-141.97;76.15;47655.53;5037657;28;20639;-80
2023/05/04 08:15:06;;;;;;;32.20;19.13;;;;;;;-141.97;76.20;47599.81;5037924;28;20158;-80
2023/05/04 08:17:33;;;;;;;35.13;20.13;;;;;;;-141.97;75.40;47684.38;5020682;28;20205;-82
2023/05/04 08:19:59;;;;;;;35.17;20.03;;;;;;;-141.97;75.06;47692.06;5038230;28;20174;-83
2023/05/04 08:22:25;;;;;;;38.43;20.57;;;;;;;-141.97;75.02;47603.66;5038707;28;20237;-82
2023/05/04 08:24:51;;;;;;;39.10;21.47;;;;;;;-141.97;74.75;47807.41;5037960;28;20193;-82
2023/05/04 08:27:16;;;;;;;41.83;23.13;;;;;;;-141.97;73.64;47684.38;5037415;28;20219;-83
2023/05/04 08:29:42;;;;;;;40.27;23.93;;;;;;;-141.97;73.34;47703.59;5047643;28;20252;-82
2023/05/04 08:32:07;;;;;;;41.03;24.23;;;;;;;-141.97;73.79;47661.31;5058206;28;20165;-82
2023/05/04 08:34:33;;;;;;;40.73;22.70;;;;;;;-141.97;73.74;47649.78;5057835;28;20218;-82
2023/05/04 08:36:58;;;;;;;38.83;22.67;;;;;;;-141.97;74.28;47655.53;5063932;28;20210;-84
2023/05/04 08:39:24;;;;;;;42.90;23.83;;;;;;;-141.97;74.99;47724.75;5039859;28;20225;-81
2023/05/04 08:41:49;;;;;;;37.47;22.87;;;;;;;-141.97;75.15;47757.41;5058287;28;20320;-81
2023/05/04 08:44:16;;;;;;;34.37;21.23;;;;;;;-141.97;75.13;47630.56;5047322;28;20185;-81
2023/05/04 08:46:42;;;;;;;38.03;21.47;;;;;;;-141.97;76.01;47669.00;5042930;28;20189;-82
2023/05/04 08:49:09;;;;;;;40.77;21.87;;;;;;;-141.97;77.44;47626.72;5034628;28;20189;-82
2023/05/04 08:51:36;;;;;;;41.67;24.10;;;;;;;-141.97;77.85;47669.00;5037039;28;20206;-82
2023/05/04 08:54:06;;;;;;;38.33;22.97;;;;;;;-141.97;77.67;47640.16;5027786;28;20632;-81
2023/05/04 08:56:32;;;;;;;43.70;24.57;;;;;;;-141.97;77.13;47663.22;5037291;28;20244;-82
2023/05/04 08:59:00;;;;;;;42.60;23.67;;;;;;;-141.97;77.68;47665.16;5037343;28;20228;-83
2023/05/04 09:01:27;;;;;;;41.40;23.13;;;;;;;-141.97;76.99;47607.50;5037851;28;20241;-83
2023/05/04 09:03:53;;;;;;;43.50;23.50;;;;;;;-141.97;76.39;47592.13;5038765;28;20165;-81
2023/05/04 09:06:19;;;;;;;41.40;22.90;;;;;;;-141.97;75.67;47676.69;5039192;28;20502;-83
2023/05/04 09:08:45;;;;;;;43.10;24.07;;;;;;;-141.97;75.42;47697.84;5038997;28;20528;-82
2023/05/04 09:11:10;;;;;;;43.57;22.87;;;;;;;-141.97;74.52;47638.25;5035661;28;20186;-83
2023/05/04 09:13:35;;;;;;;40.07;23.37;;;;;;;-141.97;74.09;47780.47;5034644;28;20649;-83
2023/05/04 09:16:02;;;;;;;43.30;23.93;;;;;;;-141.97;75.05;47569.06;5034802;28;20615;-82
2023/05/04 09:18:39;;;;;;;40.63;23.57;;;;;;;-141.97;75.50;47588.28;5018369;28;20185;-84
2023/05/04 09:21:05;;;;;;;45.10;22.87;;;;;;;-141.97;75.40;47701.69;5040259;28;20169;-81
2023/05/04 09:23:32;;;;;;;47.90;24.97;;;;;;;-141.97;75.34;47715.13;5035074;28;20173;-80
2023/05/04 09:25:57;;;;;;;42.83;22.87;;;;;;;-141.97;75.70;47688.22;5040182;28;20170;-80
2023/05/04 09:28:34;;;;;;;47.87;24.13;;;;;;;-141.97;75.78;47676.69;5017194;28;20189;-81
2023/05/04 09:31:01;;;;;;;46.17;23.70;;;;;;;-141.97;74.91;47634.41;5036285;28;20208;-81
2023/05/04 09:33:27;;;;;;;42.40;23.37;;;;;;;-141.97;73.71;47728.59;5036523;28;20309;-80
2023/05/04 09:35:52;;;;;;;44.03;24.23;;;;;;;-141.97;73.22;47692.06;5054022;28;20165;-82
2023/05/04 09:38:28;;;;;;;43.53;23.77;;;;;;;-141.97;73.43;47695.91;5054214;28;20714;-82
2023/05/04 09:40:54;;;;;;;47.07;24.87;;;;;;;-141.97;74.24;47663.22;5035961;28;20165;-82
2023/05/04 09:43:19;;;;;;;44.73;24.87;;;;;;;-141.97;74.45;47642.09;5034752;28;20165;-82
2023/05/04 09:46:05;;;;;;;;;;;;;;;;;;;;;
2023/05/04 09:48:37;;;;;;;48.40;25.93;;;;;;;-141.97;76.57;47620.94;4977358;28;20195;-83
2023/05/04 09:51:06;;;;;;;47.40;25.50;;;;;;;-141.97;76.20;47669.00;4973082;28;20674;-82
2023/05/04 09:53:32;;;;;;;45.87;24.43;;;;;;;-141.97;75.59;47670.91;4967970;28;20240;-83
2023/05/04 09:56:28;;;;;;;45.93;24.33;;;;;;;-141.97;74.89;47688.22;4981073;28;20282;-83
2023/05/04 09:58:59;;;;;;;48.50;24.70;;;;;;;-141.97;75.30;47853.53;4973174;28;20242;-87
2023/05/04 10:01:30;;;;;;;47.87;25.50;;;;;;;-141.97;74.76;47707.44;4976419;28;20561;-84
2023/05/04 10:03:56;;;;;;;47.23;26.63;;;;;;;-141.97;75.43;47680.53;4975126;28;20172;-83
2023/05/04 10:06:22;;;;;;;47.00;25.13;;;;;;;-141.97;75.07;47632.47;4973894;28;20179;-81
2023/05/04 10:08:49;;;;;;;48.77;24.57;;;;;;;-141.97;74.99;47561.38;4977829;28;20332;-81
2023/05/04 10:11:17;;;;;;;47.80;24.80;;;;;;;-141.97;74.41;47715.13;4975261;28;20285;-81
2023/05/04 10:13:47;;;;;;;45.13;25.27;;;;;;;-141.97;73.88;47697.84;4976697;28;20623;-81
2023/05/04 10:16:43;;;;;;;47.50;25.90;;;;;;;-141.97;74.60;47617.09;4975774;28;20703;-82
2023/05/04 10:19:24;;;;;;;50.93;28.93;;;;;;;-141.97;74.34;47649.78;4959950;28;20262;-79
2023/05/04 10:22:13;;;;;;;48.53;27.43;;;;;;;-141.97;74.11;47688.22;4977338;28;20650;-80
2023/05/04 10:24:45;;;;;;;48.03;25.27;;;;;;;-141.97;73.61;47665.16;4976858;28;20195;-82
2023/05/04 10:27:16;;;;;;;49.73;26.53;;;;;;;-141.97;72.47;47672.84;4977439;28;20180;-81
2023/05/04 10:29:47;;;;;;;46.07;25.90;;;;;;;-141.97;71.61;47674.78;4973405;28;20180;-81
2023/05/04 10:32:22;;;;;;;46.60;26.47;;;;;;;-141.97;70.92;47818.94;4972213;28;20168;-82
2023/05/04 10:34:48;;;;;;;45.17;25.40;;;;;;;-141.97;70.33;47563.28;4973326;28;20255;-83
2023/05/04 10:37:18;;;;;;;48.27;25.87;;;;;;;-141.97;70.89;47657.47;4973567;28;20247;-83
2023/05/04 10:39:53;;;;;;;45.03;25.97;;;;;;;-141.97;70.35;47609.41;4972739;28;20654;-81
2023/05/04 10:42:20;;;;;;;44.80;25.17;;;;;;;-141.97;71.30;47694.00;4972398;28;20179;-83
2023/05/04 10:44:56;;;;;;;49.47;25.37;;;;;;;-141.97;70.00;47676.69;4973826;28;20172;-82
2023/05/04 10:47:44;;;;;;;46.30;25.83;;;;;;;-141.97;69.96;47626.72;4976952;28;20193;-78
2023/05/04 10:50:14;;;;;;;40.77;23.03;;;;;;;-141.97;69.10;47669.00;4984081;28;20247;-80
2023/05/04 10:52:52;;;;;;;43.40;24.63;;;;;;;-141.97;69.63;47669.00;4966862;28;20178;-83
2023/05/04 10:55:19;;;;;;;47.37;25.03;;;;;;;-141.97;70.63;47647.84;4984515;28;20184;-82
2023/05/04 10:57:56;;;;;;;41.97;24.07;;;;;;;-141.97;70.37;47665.16;4989382;28;20176;-82
2023/05/04 11:00:23;;;;;;;42.27;24.53;;;;;;;-141.97;70.58;47703.59;4972521;28;20195;-82